Anawalt, West Virginia
Current Conditions -  °F | °C
As of 1:52 AM on Monday 22 Dec 2014 (Local Time) from KBLF Reporting Station
Overcast Overcast  
Wind Chill: 32°   Ceiling: 700
Heat Index: 37°   Visibility: 10mi
Dew Point: 32°   Wind: 6mph
Humidity: 82%   Direction: NA
Pressure: 30.11"   Gusts: NA
Location:  37.34°N, 81.44°W
Report Text: KBLF 220652Z AUTO VRB05KT 10SM OVC007 03/00 A3011 RMK AO2 SLP201 T00280000
Loading
Personal Weather Stations






























Interactive Weather Map New forecast layout! Learn more

10-Day Weather Forecast

Advertisements
Track Severe Weather on mobile